sensor_id;sensor_type;location;lat;lon;timestamp;P1;durP1;ratioP1;P2;durP2;ratioP2
15629;SDS011;7914;50.842;0.166;2024-02-16T00:00:29;12.20;;;4.00;;
15629;SDS011;7914;50.842;0.166;2024-02-16T00:02:55;9.48;;;3.42;;
15629;SDS011;7914;50.842;0.166;2024-02-16T00:05:21;7.68;;;3.70;;
15629;SDS011;7914;50.842;0.166;2024-02-16T00:07:47;9.45;;;3.47;;
15629;SDS011;7914;50.842;0.166;2024-02-16T00:10:13;8.38;;;3.75;;
15629;SDS011;7914;50.842;0.166;2024-02-16T00:12:38;9.48;;;4.47;;
15629;SDS011;7914;50.842;0.166;2024-02-16T00:15:05;12.80;;;3.45;;
15629;SDS011;7914;50.842;0.166;2024-02-16T00:17:31;10.55;;;3.88;;
15629;SDS011;7914;50.842;0.166;2024-02-16T00:19:58;7.28;;;3.75;;
15629;SDS011;7914;50.842;0.166;2024-02-16T00:22:24;11.00;;;4.15;;
15629;SDS011;7914;50.842;0.166;2024-02-16T00:24:51;9.70;;;3.35;;
15629;SDS011;7914;50.842;0.166;2024-02-16T00:27:17;8.63;;;3.47;;
15629;SDS011;7914;50.842;0.166;2024-02-16T00:29:43;7.07;;;2.92;;
15629;SDS011;7914;50.842;0.166;2024-02-16T00:32:09;7.05;;;3.40;;
15629;SDS011;7914;50.842;0.166;2024-02-16T00:34:35;8.27;;;3.60;;
15629;SDS011;7914;50.842;0.166;2024-02-16T00:37:02;12.45;;;4.20;;
15629;SDS011;7914;50.842;0.166;2024-02-16T00:39:38;9.63;;;3.72;;
15629;SDS011;7914;50.842;0.166;2024-02-16T00:42:06;7.47;;;3.60;;
15629;SDS011;7914;50.842;0.166;2024-02-16T00:44:35;8.40;;;3.78;;
15629;SDS011;7914;50.842;0.166;2024-02-16T00:47:02;10.65;;;4.63;;
15629;SDS011;7914;50.842;0.166;2024-02-16T00:49:30;9.05;;;3.88;;
15629;SDS011;7914;50.842;0.166;2024-02-16T00:54:26;9.20;;;3.30;;
15629;SDS011;7914;50.842;0.166;2024-02-16T00:56:52;9.23;;;4.18;;
15629;SDS011;7914;50.842;0.166;2024-02-16T00:59:17;10.43;;;3.78;;
15629;SDS011;7914;50.842;0.166;2024-02-16T01:01:44;8.75;;;3.30;;
15629;SDS011;7914;50.842;0.166;2024-02-16T01:04:10;9.02;;;4.28;;
15629;SDS011;7914;50.842;0.166;2024-02-16T01:06:36;8.48;;;3.67;;
15629;SDS011;7914;50.842;0.166;2024-02-16T01:09:02;9.50;;;3.83;;
15629;SDS011;7914;50.842;0.166;2024-02-16T01:11:28;8.13;;;3.10;;
15629;SDS011;7914;50.842;0.166;2024-02-16T01:13:54;11.07;;;4.38;;
15629;SDS011;7914;50.842;0.166;2024-02-16T01:16:20;8.20;;;4.30;;
15629;SDS011;7914;50.842;0.166;2024-02-16T01:18:46;10.18;;;3.53;;
15629;SDS011;7914;50.842;0.166;2024-02-16T01:21:12;9.07;;;3.75;;
15629;SDS011;7914;50.842;0.166;2024-02-16T01:23:37;10.05;;;3.92;;
15629;SDS011;7914;50.842;0.166;2024-02-16T01:26:03;10.35;;;3.80;;
15629;SDS011;7914;50.842;0.166;2024-02-16T01:28:29;7.60;;;3.70;;
15629;SDS011;7914;50.842;0.166;2024-02-16T01:31:00;10.07;;;4.13;;
15629;SDS011;7914;50.842;0.166;2024-02-16T01:33:26;8.57;;;4.18;;
15629;SDS011;7914;50.842;0.166;2024-02-16T01:35:52;9.50;;;3.47;;
15629;SDS011;7914;50.842;0.166;2024-02-16T01:38:19;10.57;;;4.30;;
15629;SDS011;7914;50.842;0.166;2024-02-16T01:40:48;8.65;;;4.35;;
15629;SDS011;7914;50.842;0.166;2024-02-16T01:43:18;7.72;;;3.53;;
15629;SDS011;7914;50.842;0.166;2024-02-16T01:45:45;9.85;;;3.60;;
15629;SDS011;7914;50.842;0.166;2024-02-16T01:48:10;8.48;;;4.80;;
15629;SDS011;7914;50.842;0.166;2024-02-16T01:50:37;8.82;;;4.57;;
15629;SDS011;7914;50.842;0.166;2024-02-16T01:53:03;8.43;;;4.22;;
15629;SDS011;7914;50.842;0.166;2024-02-16T01:55:41;9.00;;;4.10;;
15629;SDS011;7914;50.842;0.166;2024-02-16T01:58:07;8.52;;;4.25;;
15629;SDS011;7914;50.842;0.166;2024-02-16T02:00:33;8.88;;;3.88;;
15629;SDS011;7914;50.842;0.166;2024-02-16T02:02:58;8.55;;;4.22;;
15629;SDS011;7914;50.842;0.166;2024-02-16T02:05:24;9.98;;;4.03;;
15629;SDS011;7914;50.842;0.166;2024-02-16T02:07:50;8.50;;;3.75;;
15629;SDS011;7914;50.842;0.166;2024-02-16T02:10:16;7.30;;;3.92;;
15629;SDS011;7914;50.842;0.166;2024-02-16T02:12:42;9.20;;;3.90;;
15629;SDS011;7914;50.842;0.166;2024-02-16T02:15:09;10.85;;;5.10;;
15629;SDS011;7914;50.842;0.166;2024-02-16T02:17:35;10.48;;;4.22;;
15629;SDS011;7914;50.842;0.166;2024-02-16T02:20:07;8.27;;;4.43;;
15629;SDS011;7914;50.842;0.166;2024-02-16T02:22:36;10.63;;;4.60;;
15629;SDS011;7914;50.842;0.166;2024-02-16T02:25:03;12.30;;;4.68;;
15629;SDS011;7914;50.842;0.166;2024-02-16T02:27:30;8.05;;;4.10;;
15629;SDS011;7914;50.842;0.166;2024-02-16T02:29:56;10.85;;;4.22;;
15629;SDS011;7914;50.842;0.166;2024-02-16T02:32:21;10.38;;;4.85;;
15629;SDS011;7914;50.842;0.166;2024-02-16T02:34:47;8.23;;;4.03;;
15629;SDS011;7914;50.842;0.166;2024-02-16T02:37:13;12.80;;;4.78;;
15629;SDS011;7914;50.842;0.166;2024-02-16T02:39:38;10.38;;;4.40;;
15629;SDS011;7914;50.842;0.166;2024-02-16T02:42:05;9.52;;;4.40;;
15629;SDS011;7914;50.842;0.166;2024-02-16T02:44:41;10.23;;;4.75;;
15629;SDS011;7914;50.842;0.166;2024-02-16T02:47:14;9.73;;;4.75;;
15629;SDS011;7914;50.842;0.166;2024-02-16T02:49:40;9.70;;;4.95;;
15629;SDS011;7914;50.842;0.166;2024-02-16T02:52:05;10.27;;;4.72;;
15629;SDS011;7914;50.842;0.166;2024-02-16T02:54:31;10.40;;;4.97;;
15629;SDS011;7914;50.842;0.166;2024-02-16T02:56:57;12.77;;;5.45;;
15629;SDS011;7914;50.842;0.166;2024-02-16T02:59:23;11.55;;;6.10;;
15629;SDS011;7914;50.842;0.166;2024-02-16T03:01:49;9.75;;;5.03;;
15629;SDS011;7914;50.842;0.166;2024-02-16T03:04:14;11.75;;;5.95;;
15629;SDS011;7914;50.842;0.166;2024-02-16T03:06:40;12.35;;;6.20;;
15629;SDS011;7914;50.842;0.166;2024-02-16T03:09:06;11.55;;;5.18;;
15629;SDS011;7914;50.842;0.166;2024-02-16T03:11:32;11.73;;;5.63;;
15629;SDS011;7914;50.842;0.166;2024-02-16T03:13:58;10.85;;;6.18;;
15629;SDS011;7914;50.842;0.166;2024-02-16T03:16:33;13.07;;;6.00;;
15629;SDS011;7914;50.842;0.166;2024-02-16T03:18:59;12.10;;;6.90;;
15629;SDS011;7914;50.842;0.166;2024-02-16T03:21:25;17.77;;;7.00;;
15629;SDS011;7914;50.842;0.166;2024-02-16T03:23:51;15.98;;;6.72;;
15629;SDS011;7914;50.842;0.166;2024-02-16T03:26:17;14.35;;;6.53;;
15629;SDS011;7914;50.842;0.166;2024-02-16T03:28:44;13.55;;;7.43;;
15629;SDS011;7914;50.842;0.166;2024-02-16T03:31:17;13.18;;;6.68;;
15629;SDS011;7914;50.842;0.166;2024-02-16T03:33:48;16.88;;;7.57;;
15629;SDS011;7914;50.842;0.166;2024-02-16T03:36:15;15.90;;;6.82;;
15629;SDS011;7914;50.842;0.166;2024-02-16T03:38:45;15.63;;;7.38;;
15629;SDS011;7914;50.842;0.166;2024-02-16T03:41:13;16.70;;;7.63;;
15629;SDS011;7914;50.842;0.166;2024-02-16T03:43:40;14.98;;;6.88;;
15629;SDS011;7914;50.842;0.166;2024-02-16T03:46:06;14.20;;;7.25;;
15629;SDS011;7914;50.842;0.166;2024-02-16T03:48:32;17.52;;;8.52;;
15629;SDS011;7914;50.842;0.166;2024-02-16T03:50:57;15.27;;;7.55;;
15629;SDS011;7914;50.842;0.166;2024-02-16T03:53:23;17.30;;;8.38;;
15629;SDS011;7914;50.842;0.166;2024-02-16T03:55:49;16.42;;;8.60;;
15629;SDS011;7914;50.842;0.166;2024-02-16T03:58:15;15.85;;;7.88;;
15629;SDS011;7914;50.842;0.166;2024-02-16T04:00:42;16.23;;;9.00;;
15629;SDS011;7914;50.842;0.166;2024-02-16T04:03:11;14.93;;;8.90;;
15629;SDS011;7914;50.842;0.166;2024-02-16T04:05:40;16.10;;;8.73;;
15629;SDS011;7914;50.842;0.166;2024-02-16T04:08:06;18.50;;;8.93;;
15629;SDS011;7914;50.842;0.166;2024-02-16T04:10:32;15.35;;;8.05;;
15629;SDS011;7914;50.842;0.166;2024-02-16T04:12:59;15.15;;;8.70;;
15629;SDS011;7914;50.842;0.166;2024-02-16T04:15:26;16.13;;;8.27;;
15629;SDS011;7914;50.842;0.166;2024-02-16T04:17:52;17.33;;;8.68;;
15629;SDS011;7914;50.842;0.166;2024-02-16T04:20:22;15.38;;;6.85;;
15629;SDS011;7914;50.842;0.166;2024-02-16T04:22:47;18.45;;;7.05;;
15629;SDS011;7914;50.842;0.166;2024-02-16T04:25:13;14.77;;;7.70;;
15629;SDS011;7914;50.842;0.166;2024-02-16T04:27:39;15.00;;;7.50;;
15629;SDS011;7914;50.842;0.166;2024-02-16T04:30:06;12.13;;;6.43;;
15629;SDS011;7914;50.842;0.166;2024-02-16T04:32:32;17.38;;;6.00;;
15629;SDS011;7914;50.842;0.166;2024-02-16T04:34:58;11.65;;;6.38;;
15629;SDS011;7914;50.842;0.166;2024-02-16T04:37:26;11.20;;;5.72;;
15629;SDS011;7914;50.842;0.166;2024-02-16T04:39:52;12.13;;;5.85;;
15629;SDS011;7914;50.842;0.166;2024-02-16T04:42:18;11.27;;;4.93;;
15629;SDS011;7914;50.842;0.166;2024-02-16T04:44:44;10.68;;;4.78;;
15629;SDS011;7914;50.842;0.166;2024-02-16T04:47:17;11.40;;;5.28;;
15629;SDS011;7914;50.842;0.166;2024-02-16T04:49:43;12.40;;;4.80;;
15629;SDS011;7914;50.842;0.166;2024-02-16T04:52:09;12.85;;;5.38;;
15629;SDS011;7914;50.842;0.166;2024-02-16T04:54:36;11.43;;;4.90;;
15629;SDS011;7914;50.842;0.166;2024-02-16T04:57:02;15.23;;;6.53;;
15629;SDS011;7914;50.842;0.166;2024-02-16T04:59:28;15.38;;;5.07;;
15629;SDS011;7914;50.842;0.166;2024-02-16T05:01:53;11.18;;;5.30;;
15629;SDS011;7914;50.842;0.166;2024-02-16T05:04:19;13.23;;;5.53;;
15629;SDS011;7914;50.842;0.166;2024-02-16T05:06:45;10.57;;;5.35;;
15629;SDS011;7914;50.842;0.166;2024-02-16T05:09:15;10.82;;;5.03;;
15629;SDS011;7914;50.842;0.166;2024-02-16T05:11:42;12.27;;;5.75;;
15629;SDS011;7914;50.842;0.166;2024-02-16T05:14:09;10.63;;;4.70;;
15629;SDS011;7914;50.842;0.166;2024-02-16T05:19:02;9.95;;;5.38;;
15629;SDS011;7914;50.842;0.166;2024-02-16T05:21:28;8.98;;;4.55;;
15629;SDS011;7914;50.842;0.166;2024-02-16T05:23:54;10.75;;;5.30;;
15629;SDS011;7914;50.842;0.166;2024-02-16T05:26:20;13.10;;;4.57;;
15629;SDS011;7914;50.842;0.166;2024-02-16T05:28:46;10.43;;;4.88;;
15629;SDS011;7914;50.842;0.166;2024-02-16T05:31:13;9.07;;;4.78;;
15629;SDS011;7914;50.842;0.166;2024-02-16T05:33:52;10.10;;;4.70;;
15629;SDS011;7914;50.842;0.166;2024-02-16T05:38:46;10.65;;;5.05;;
15629;SDS011;7914;50.842;0.166;2024-02-16T05:41:12;8.10;;;4.03;;
15629;SDS011;7914;50.842;0.166;2024-02-16T05:43:38;9.07;;;4.32;;
15629;SDS011;7914;50.842;0.166;2024-02-16T05:46:04;15.25;;;5.22;;
15629;SDS011;7914;50.842;0.166;2024-02-16T05:48:33;9.98;;;4.43;;
15629;SDS011;7914;50.842;0.166;2024-02-16T05:51:02;9.75;;;4.13;;
15629;SDS011;7914;50.842;0.166;2024-02-16T05:53:30;10.23;;;3.60;;
15629;SDS011;7914;50.842;0.166;2024-02-16T05:55:56;8.18;;;3.80;;
15629;SDS011;7914;50.842;0.166;2024-02-16T05:58:24;9.45;;;4.03;;
15629;SDS011;7914;50.842;0.166;2024-02-16T06:00:50;6.07;;;2.65;;
15629;SDS011;7914;50.842;0.166;2024-02-16T06:03:16;7.93;;;2.72;;
15629;SDS011;7914;50.842;0.166;2024-02-16T06:05:42;7.80;;;3.45;;
15629;SDS011;7914;50.842;0.166;2024-02-16T06:08:10;7.68;;;2.72;;
15629;SDS011;7914;50.842;0.166;2024-02-16T06:10:38;5.30;;;2.33;;
15629;SDS011;7914;50.842;0.166;2024-02-16T06:13:13;5.75;;;2.28;;
15629;SDS011;7914;50.842;0.166;2024-02-16T06:15:39;5.65;;;2.10;;
15629;SDS011;7914;50.842;0.166;2024-02-16T06:18:04;3.42;;;1.35;;
15629;SDS011;7914;50.842;0.166;2024-02-16T06:20:30;4.57;;;1.20;;
15629;SDS011;7914;50.842;0.166;2024-02-16T06:22:56;2.63;;;1.10;;
15629;SDS011;7914;50.842;0.166;2024-02-16T06:25:21;1.52;;;0.77;;
15629;SDS011;7914;50.842;0.166;2024-02-16T06:27:47;3.25;;;1.10;;
15629;SDS011;7914;50.842;0.166;2024-02-16T06:30:13;3.17;;;0.85;;
15629;SDS011;7914;50.842;0.166;2024-02-16T06:32:41;4.47;;;1.25;;
15629;SDS011;7914;50.842;0.166;2024-02-16T06:35:07;6.00;;;0.90;;
15629;SDS011;7914;50.842;0.166;2024-02-16T06:37:34;2.75;;;0.70;;
15629;SDS011;7914;50.842;0.166;2024-02-16T06:40:00;2.42;;;0.90;;
15629;SDS011;7914;50.842;0.166;2024-02-16T06:42:25;2.05;;;0.70;;
15629;SDS011;7914;50.842;0.166;2024-02-16T06:44:52;1.92;;;0.90;;
15629;SDS011;7914;50.842;0.166;2024-02-16T06:47:17;3.17;;;1.13;;
15629;SDS011;7914;50.842;0.166;2024-02-16T06:49:44;2.55;;;1.02;;
15629;SDS011;7914;50.842;0.166;2024-02-16T06:52:17;3.67;;;1.10;;
15629;SDS011;7914;50.842;0.166;2024-02-16T06:54:43;2.58;;;1.02;;
15629;SDS011;7914;50.842;0.166;2024-02-16T06:57:09;3.38;;;0.95;;
15629;SDS011;7914;50.842;0.166;2024-02-16T06:59:35;3.88;;;1.00;;
15629;SDS011;7914;50.842;0.166;2024-02-16T07:02:00;3.97;;;1.30;;
15629;SDS011;7914;50.842;0.166;2024-02-16T07:04:26;2.97;;;1.15;;
15629;SDS011;7914;50.842;0.166;2024-02-16T07:06:52;4.75;;;1.42;;
15629;SDS011;7914;50.842;0.166;2024-02-16T07:09:17;4.78;;;1.13;;
15629;SDS011;7914;50.842;0.166;2024-02-16T07:11:43;6.15;;;1.27;;
15629;SDS011;7914;50.842;0.166;2024-02-16T07:14:12;6.03;;;1.40;;
15629;SDS011;7914;50.842;0.166;2024-02-16T07:16:38;4.00;;;1.75;;
15629;SDS011;7914;50.842;0.166;2024-02-16T07:19:03;2.75;;;1.10;;
15629;SDS011;7914;50.842;0.166;2024-02-16T07:21:30;4.47;;;1.15;;
15629;SDS011;7914;50.842;0.166;2024-02-16T07:23:56;3.40;;;1.40;;
15629;SDS011;7914;50.842;0.166;2024-02-16T07:26:29;3.20;;;1.20;;
15629;SDS011;7914;50.842;0.166;2024-02-16T07:28:55;3.10;;;1.08;;
15629;SDS011;7914;50.842;0.166;2024-02-16T07:31:21;3.28;;;1.17;;
15629;SDS011;7914;50.842;0.166;2024-02-16T07:33:46;2.58;;;1.10;;
15629;SDS011;7914;50.842;0.166;2024-02-16T07:36:12;3.15;;;1.17;;
15629;SDS011;7914;50.842;0.166;2024-02-16T07:38:40;5.50;;;1.55;;
15629;SDS011;7914;50.842;0.166;2024-02-16T07:41:05;3.38;;;1.13;;
15629;SDS011;7914;50.842;0.166;2024-02-16T07:43:32;2.20;;;1.00;;
15629;SDS011;7914;50.842;0.166;2024-02-16T07:45:58;2.75;;;1.15;;
15629;SDS011;7914;50.842;0.166;2024-02-16T07:48:24;5.05;;;1.60;;
15629;SDS011;7914;50.842;0.166;2024-02-16T07:50:49;4.53;;;1.20;;
15629;SDS011;7914;50.842;0.166;2024-02-16T07:53:15;4.53;;;1.25;;
15629;SDS011;7914;50.842;0.166;2024-02-16T07:55:41;3.53;;;1.48;;
15629;SDS011;7914;50.842;0.166;2024-02-16T07:58:07;3.42;;;1.55;;
15629;SDS011;7914;50.842;0.166;2024-02-16T08:00:34;3.95;;;1.30;;
15629;SDS011;7914;50.842;0.166;2024-02-16T08:03:00;6.80;;;1.73;;
15629;SDS011;7914;50.842;0.166;2024-02-16T08:05:25;11.57;;;1.98;;
15629;SDS011;7914;50.842;0.166;2024-02-16T08:07:58;3.80;;;1.73;;
15629;SDS011;7914;50.842;0.166;2024-02-16T08:10:23;5.32;;;1.20;;
15629;SDS011;7914;50.842;0.166;2024-02-16T08:12:50;5.53;;;1.60;;
15629;SDS011;7914;50.842;0.166;2024-02-16T08:15:16;6.00;;;1.80;;
15629;SDS011;7914;50.842;0.166;2024-02-16T08:17:48;5.10;;;1.63;;
15629;SDS011;7914;50.842;0.166;2024-02-16T08:20:15;5.00;;;1.52;;
15629;SDS011;7914;50.842;0.166;2024-02-16T08:22:41;4.47;;;1.50;;
15629;SDS011;7914;50.842;0.166;2024-02-16T08:25:12;6.22;;;1.50;;
15629;SDS011;7914;50.842;0.166;2024-02-16T08:27:38;6.22;;;1.80;;
15629;SDS011;7914;50.842;0.166;2024-02-16T08:30:04;4.63;;;1.00;;
15629;SDS011;7914;50.842;0.166;2024-02-16T08:32:30;5.85;;;1.50;;
15629;SDS011;7914;50.842;0.166;2024-02-16T08:34:56;6.15;;;1.35;;
15629;SDS011;7914;50.842;0.166;2024-02-16T08:37:40;7.03;;;1.55;;
15629;SDS011;7914;50.842;0.166;2024-02-16T08:40:12;5.20;;;1.45;;
15629;SDS011;7914;50.842;0.166;2024-02-16T08:42:41;5.22;;;1.73;;
15629;SDS011;7914;50.842;0.166;2024-02-16T08:47:37;3.70;;;1.10;;
15629;SDS011;7914;50.842;0.166;2024-02-16T08:50:05;3.60;;;1.23;;
15629;SDS011;7914;50.842;0.166;2024-02-16T08:52:32;3.58;;;1.20;;
15629;SDS011;7914;50.842;0.166;2024-02-16T08:54:57;6.57;;;1.25;;
15629;SDS011;7914;50.842;0.166;2024-02-16T08:57:23;5.43;;;1.55;;
15629;SDS011;7914;50.842;0.166;2024-02-16T08:59:49;2.65;;;0.82;;
15629;SDS011;7914;50.842;0.166;2024-02-16T09:02:24;5.15;;;1.23;;
15629;SDS011;7914;50.842;0.166;2024-02-16T09:04:49;4.28;;;0.98;;
15629;SDS011;7914;50.842;0.166;2024-02-16T09:07:15;4.78;;;1.13;;
15629;SDS011;7914;50.842;0.166;2024-02-16T09:09:41;4.50;;;1.30;;
15629;SDS011;7914;50.842;0.166;2024-02-16T09:12:06;7.43;;;1.30;;
15629;SDS011;7914;50.842;0.166;2024-02-16T09:14:32;4.82;;;1.25;;
15629;SDS011;7914;50.842;0.166;2024-02-16T09:17:19;6.35;;;1.50;;
15629;SDS011;7914;50.842;0.166;2024-02-16T09:19:45;8.45;;;1.55;;
15629;SDS011;7914;50.842;0.166;2024-02-16T09:22:11;6.53;;;1.63;;
15629;SDS011;7914;50.842;0.166;2024-02-16T09:24:37;8.07;;;2.15;;
15629;SDS011;7914;50.842;0.166;2024-02-16T09:27:03;9.75;;;1.77;;
15629;SDS011;7914;50.842;0.166;2024-02-16T09:29:29;12.43;;;2.35;;
15629;SDS011;7914;50.842;0.166;2024-02-16T09:31:55;9.18;;;2.40;;
15629;SDS011;7914;50.842;0.166;2024-02-16T09:34:21;5.88;;;1.80;;
15629;SDS011;7914;50.842;0.166;2024-02-16T09:36:47;6.13;;;1.67;;
15629;SDS011;7914;50.842;0.166;2024-02-16T09:39:13;5.88;;;1.80;;
15629;SDS011;7914;50.842;0.166;2024-02-16T09:41:41;7.90;;;1.85;;
15629;SDS011;7914;50.842;0.166;2024-02-16T09:44:10;5.35;;;1.75;;
15629;SDS011;7914;50.842;0.166;2024-02-16T09:46:36;7.15;;;1.90;;
15629;SDS011;7914;50.842;0.166;2024-02-16T09:49:03;8.85;;;1.95;;
15629;SDS011;7914;50.842;0.166;2024-02-16T09:51:29;8.23;;;1.33;;
15629;SDS011;7914;50.842;0.166;2024-02-16T09:53:59;10.35;;;2.20;;
15629;SDS011;7914;50.842;0.166;2024-02-16T09:56:28;9.82;;;2.20;;
15629;SDS011;7914;50.842;0.166;2024-02-16T09:58:54;4.65;;;1.40;;
15629;SDS011;7914;50.842;0.166;2024-02-16T10:01:21;8.88;;;1.67;;
15629;SDS011;7914;50.842;0.166;2024-02-16T10:03:48;7.60;;;1.92;;
15629;SDS011;7914;50.842;0.166;2024-02-16T10:06:15;7.43;;;1.55;;
15629;SDS011;7914;50.842;0.166;2024-02-16T10:11:15;5.80;;;1.27;;
15629;SDS011;7914;50.842;0.166;2024-02-16T10:13:42;6.78;;;1.52;;
15629;SDS011;7914;50.842;0.166;2024-02-16T10:16:08;9.13;;;1.83;;
15629;SDS011;7914;50.842;0.166;2024-02-16T10:18:36;9.68;;;2.13;;
15629;SDS011;7914;50.842;0.166;2024-02-16T10:21:05;7.05;;;1.80;;
15629;SDS011;7914;50.842;0.166;2024-02-16T10:23:31;7.40;;;1.67;;
15629;SDS011;7914;50.842;0.166;2024-02-16T10:25:57;8.68;;;1.70;;
15629;SDS011;7914;50.842;0.166;2024-02-16T10:28:24;9.05;;;2.30;;
15629;SDS011;7914;50.842;0.166;2024-02-16T10:31:11;7.65;;;1.75;;
15629;SDS011;7914;50.842;0.166;2024-02-16T10:33:37;6.28;;;1.67;;
15629;SDS011;7914;50.842;0.166;2024-02-16T10:36:03;3.35;;;1.35;;
15629;SDS011;7914;50.842;0.166;2024-02-16T10:38:30;7.82;;;1.70;;
15629;SDS011;7914;50.842;0.166;2024-02-16T10:40:56;8.88;;;1.58;;
15629;SDS011;7914;50.842;0.166;2024-02-16T10:43:35;5.55;;;1.50;;
15629;SDS011;7914;50.842;0.166;2024-02-16T10:46:01;5.18;;;1.65;;
15629;SDS011;7914;50.842;0.166;2024-02-16T10:48:27;5.78;;;1.73;;
15629;SDS011;7914;50.842;0.166;2024-02-16T10:50:53;9.05;;;2.35;;
15629;SDS011;7914;50.842;0.166;2024-02-16T10:53:24;5.85;;;1.63;;
15629;SDS011;7914;50.842;0.166;2024-02-16T10:55:52;8.05;;;1.80;;
15629;SDS011;7914;50.842;0.166;2024-02-16T10:58:27;5.80;;;1.35;;
15629;SDS011;7914;50.842;0.166;2024-02-16T11:00:57;5.28;;;1.50;;
15629;SDS011;7914;50.842;0.166;2024-02-16T11:03:26;5.45;;;1.35;;
15629;SDS011;7914;50.842;0.166;2024-02-16T11:05:53;8.27;;;1.35;;
15629;SDS011;7914;50.842;0.166;2024-02-16T11:08:20;5.57;;;1.00;;
15629;SDS011;7914;50.842;0.166;2024-02-16T11:13:28;5.40;;;1.80;;
15629;SDS011;7914;50.842;0.166;2024-02-16T11:16:01;3.15;;;0.93;;
15629;SDS011;7914;50.842;0.166;2024-02-16T11:18:28;2.58;;;0.90;;
15629;SDS011;7914;50.842;0.166;2024-02-16T11:20:55;7.15;;;1.63;;
15629;SDS011;7914;50.842;0.166;2024-02-16T11:23:27;5.30;;;1.02;;
15629;SDS011;7914;50.842;0.166;2024-02-16T11:26:03;6.65;;;1.05;;
15629;SDS011;7914;50.842;0.166;2024-02-16T11:28:34;2.40;;;0.90;;
15629;SDS011;7914;50.842;0.166;2024-02-16T11:31:01;4.25;;;1.00;;
15629;SDS011;7914;50.842;0.166;2024-02-16T11:33:27;6.18;;;1.27;;
15629;SDS011;7914;50.842;0.166;2024-02-16T11:35:54;4.30;;;1.13;;
15629;SDS011;7914;50.842;0.166;2024-02-16T11:38:22;4.93;;;1.02;;
15629;SDS011;7914;50.842;0.166;2024-02-16T11:40:55;5.35;;;0.90;;
15629;SDS011;7914;50.842;0.166;2024-02-16T11:43:23;3.08;;;1.33;;
15629;SDS011;7914;50.842;0.166;2024-02-16T11:45:49;6.15;;;1.45;;
15629;SDS011;7914;50.842;0.166;2024-02-16T11:48:19;5.13;;;1.10;;
15629;SDS011;7914;50.842;0.166;2024-02-16T11:50:49;3.78;;;1.10;;
15629;SDS011;7914;50.842;0.166;2024-02-16T11:53:18;6.47;;;1.23;;
15629;SDS011;7914;50.842;0.166;2024-02-16T11:55:48;4.88;;;0.88;;
15629;SDS011;7914;50.842;0.166;2024-02-16T11:58:17;5.00;;;1.00;;
15629;SDS011;7914;50.842;0.166;2024-02-16T12:00:44;4.45;;;0.80;;
15629;SDS011;7914;50.842;0.166;2024-02-16T12:03:25;2.13;;;0.70;;
15629;SDS011;7914;50.842;0.166;2024-02-16T12:05:59;3.22;;;1.20;;
15629;SDS011;7914;50.842;0.166;2024-02-16T12:08:31;5.93;;;0.80;;
15629;SDS011;7914;50.842;0.166;2024-02-16T12:11:01;2.00;;;0.82;;
15629;SDS011;7914;50.842;0.166;2024-02-16T12:13:27;5.53;;;1.13;;
15629;SDS011;7914;50.842;0.166;2024-02-16T12:15:53;4.53;;;1.05;;
15629;SDS011;7914;50.842;0.166;2024-02-16T12:18:25;3.78;;;1.10;;
15629;SDS011;7914;50.842;0.166;2024-02-16T12:23:44;3.65;;;0.80;;
15629;SDS011;7914;50.842;0.166;2024-02-16T12:26:10;6.35;;;1.67;;
15629;SDS011;7914;50.842;0.166;2024-02-16T12:28:36;8.80;;;0.93;;
15629;SDS011;7914;50.842;0.166;2024-02-16T12:31:02;2.22;;;0.75;;
15629;SDS011;7914;50.842;0.166;2024-02-16T12:33:28;1.92;;;0.68;;
15629;SDS011;7914;50.842;0.166;2024-02-16T12:35:53;1.90;;;0.60;;
15629;SDS011;7914;50.842;0.166;2024-02-16T12:38:19;3.58;;;0.70;;
15629;SDS011;7914;50.842;0.166;2024-02-16T12:40:51;2.30;;;0.63;;
15629;SDS011;7914;50.842;0.166;2024-02-16T12:43:17;1.75;;;0.73;;
15629;SDS011;7914;50.842;0.166;2024-02-16T12:45:44;4.10;;;0.80;;
15629;SDS011;7914;50.842;0.166;2024-02-16T12:48:10;1.92;;;0.55;;
15629;SDS011;7914;50.842;0.166;2024-02-16T12:50:38;3.53;;;0.60;;
15629;SDS011;7914;50.842;0.166;2024-02-16T12:53:04;5.78;;;1.05;;
15629;SDS011;7914;50.842;0.166;2024-02-16T12:55:30;2.15;;;0.80;;
15629;SDS011;7914;50.842;0.166;2024-02-16T12:57:56;2.78;;;0.70;;
15629;SDS011;7914;50.842;0.166;2024-02-16T13:00:22;4.65;;;0.93;;
15629;SDS011;7914;50.842;0.166;2024-02-16T13:02:48;2.97;;;0.47;;
15629;SDS011;7914;50.842;0.166;2024-02-16T13:05:13;4.78;;;0.60;;
15629;SDS011;7914;50.842;0.166;2024-02-16T13:07:39;0.95;;;0.30;;
15629;SDS011;7914;50.842;0.166;2024-02-16T13:10:07;2.63;;;0.47;;
15629;SDS011;7914;50.842;0.166;2024-02-16T13:12:33;2.05;;;0.40;;
15629;SDS011;7914;50.842;0.166;2024-02-16T13:14:59;1.77;;;0.50;;
15629;SDS011;7914;50.842;0.166;2024-02-16T13:17:27;3.30;;;0.60;;
15629;SDS011;7914;50.842;0.166;2024-02-16T13:19:53;3.60;;;0.70;;
15629;SDS011;7914;50.842;0.166;2024-02-16T13:22:19;1.95;;;0.65;;
15629;SDS011;7914;50.842;0.166;2024-02-16T13:24:44;2.05;;;0.50;;
15629;SDS011;7914;50.842;0.166;2024-02-16T13:27:10;3.95;;;0.47;;
15629;SDS011;7914;50.842;0.166;2024-02-16T13:29:37;1.10;;;0.47;;
15629;SDS011;7914;50.842;0.166;2024-02-16T13:32:03;1.50;;;0.25;;
15629;SDS011;7914;50.842;0.166;2024-02-16T13:34:29;1.60;;;0.80;;
15629;SDS011;7914;50.842;0.166;2024-02-16T13:36:58;1.45;;;0.32;;
15629;SDS011;7914;50.842;0.166;2024-02-16T13:39:23;1.70;;;0.43;;
15629;SDS011;7914;50.842;0.166;2024-02-16T13:41:52;2.22;;;0.50;;
15629;SDS011;7914;50.842;0.166;2024-02-16T13:44:17;5.35;;;0.70;;
15629;SDS011;7914;50.842;0.166;2024-02-16T13:46:45;2.25;;;0.60;;
15629;SDS011;7914;50.842;0.166;2024-02-16T13:49:14;2.05;;;0.65;;
15629;SDS011;7914;50.842;0.166;2024-02-16T13:51:41;3.05;;;1.02;;
15629;SDS011;7914;50.842;0.166;2024-02-16T13:54:07;6.72;;;1.20;;
15629;SDS011;7914;50.842;0.166;2024-02-16T13:56:33;5.20;;;1.05;;
15629;SDS011;7914;50.842;0.166;2024-02-16T13:59:00;7.82;;;1.15;;
15629;SDS011;7914;50.842;0.166;2024-02-16T14:01:27;8.38;;;1.20;;
15629;SDS011;7914;50.842;0.166;2024-02-16T14:03:54;2.35;;;0.70;;
15629;SDS011;7914;50.842;0.166;2024-02-16T14:06:20;6.68;;;1.40;;
15629;SDS011;7914;50.842;0.166;2024-02-16T14:08:45;3.58;;;1.00;;
15629;SDS011;7914;50.842;0.166;2024-02-16T14:11:13;9.00;;;1.45;;
15629;SDS011;7914;50.842;0.166;2024-02-16T14:13:39;6.40;;;1.40;;
15629;SDS011;7914;50.842;0.166;2024-02-16T14:16:06;4.78;;;0.80;;
15629;SDS011;7914;50.842;0.166;2024-02-16T14:18:32;5.57;;;1.40;;
15629;SDS011;7914;50.842;0.166;2024-02-16T14:20:58;4.13;;;0.95;;
15629;SDS011;7914;50.842;0.166;2024-02-16T14:23:24;6.03;;;0.95;;
15629;SDS011;7914;50.842;0.166;2024-02-16T14:25:50;5.10;;;0.95;;
15629;SDS011;7914;50.842;0.166;2024-02-16T14:28:15;5.55;;;1.27;;
15629;SDS011;7914;50.842;0.166;2024-02-16T14:30:41;6.50;;;0.95;;
15629;SDS011;7914;50.842;0.166;2024-02-16T14:33:07;6.55;;;1.10;;
15629;SDS011;7914;50.842;0.166;2024-02-16T14:35:35;7.57;;;1.48;;
15629;SDS011;7914;50.842;0.166;2024-02-16T14:38:04;8.00;;;1.55;;
15629;SDS011;7914;50.842;0.166;2024-02-16T14:42:56;5.53;;;1.00;;
15629;SDS011;7914;50.842;0.166;2024-02-16T14:45:22;6.70;;;1.20;;
15629;SDS011;7914;50.842;0.166;2024-02-16T14:47:49;8.27;;;1.38;;
15629;SDS011;7914;50.842;0.166;2024-02-16T14:50:15;5.55;;;1.67;;
15629;SDS011;7914;50.842;0.166;2024-02-16T14:52:42;9.80;;;1.50;;
15629;SDS011;7914;50.842;0.166;2024-02-16T14:57:42;4.25;;;1.73;;
15629;SDS011;7914;50.842;0.166;2024-02-16T15:00:09;10.48;;;2.10;;
15629;SDS011;7914;50.842;0.166;2024-02-16T15:02:38;12.15;;;2.15;;
15629;SDS011;7914;50.842;0.166;2024-02-16T15:05:06;6.65;;;1.98;;
15629;SDS011;7914;50.842;0.166;2024-02-16T15:07:33;6.00;;;1.80;;
15629;SDS011;7914;50.842;0.166;2024-02-16T15:10:01;4.07;;;1.35;;
15629;SDS011;7914;50.842;0.166;2024-02-16T15:12:27;5.50;;;1.55;;
15629;SDS011;7914;50.842;0.166;2024-02-16T15:14:53;7.63;;;1.48;;
15629;SDS011;7914;50.842;0.166;2024-02-16T15:17:19;6.85;;;1.90;;
15629;SDS011;7914;50.842;0.166;2024-02-16T15:19:45;7.75;;;1.60;;